Time;durP1;ratioP1;P1;durP2;ratioP2;P2;SDS_P1;SDS_P2;PMS_P1;PMS_P2;Temp;Humidity;BMP_temperature;BMP_pressure;BME280_temperature;BME280_humidity;BME280_pressure;Samples;Min_cycle;Max_cycle;Signal;HPM_P1;HPM_P2
2023/08/16 00:02:03;;;;;;;7.82;5.20;;;15.50;99.90;;;;;;5085062;28;20282;-52
2023/08/16 00:04:29;;;;;;;9.98;5.53;;;15.40;99.90;;;;;;5087804;28;20522;-55
2023/08/16 00:06:55;;;;;;;10.18;6.60;;;15.40;99.90;;;;;;5070765;28;20480;-55
2023/08/16 00:09:21;;;;;;;7.15;4.97;;;15.40;99.90;;;;;;5091551;28;20072;-55
2023/08/16 00:11:47;;;;;;;6.10;5.28;;;15.40;99.90;;;;;;5093876;28;20070;-55
2023/08/16 00:14:25;;;;;;;6.95;5.72;;;15.40;99.90;;;;;;5091519;28;20036;-56
2023/08/16 00:16:51;;;;;;;6.57;5.20;;;15.30;99.90;;;;;;5096913;28;20074;-55
2023/08/16 00:19:17;;;;;;;6.75;5.72;;;15.30;99.90;;;;;;5087993;28;20068;-55
2023/08/16 00:21:43;;;;;;;5.65;4.80;;;15.30;99.90;;;;;;5086758;28;20062;-56
2023/08/16 00:24:09;;;;;;;8.30;4.68;;;15.20;99.90;;;;;;5086765;28;20043;-55
2023/08/16 00:26:35;;;;;;;8.65;5.18;;;15.20;99.90;;;;;;5091186;28;20043;-56
2023/08/16 00:29:02;;;;;;;6.80;5.68;;;15.20;99.90;;;;;;5071232;28;20040;-55
2023/08/16 00:31:28;;;;;;;7.35;5.00;;;15.20;99.90;;;;;;5086602;28;20048;-56
2023/08/16 00:33:54;;;;;;;5.70;4.97;;;15.20;99.90;;;;;;5081604;28;20119;-55
2023/08/16 00:36:19;;;;;;;5.68;4.75;;;15.10;99.90;;;;;;5084361;28;20028;-55
2023/08/16 00:38:45;;;;;;;6.25;4.80;;;15.10;99.90;;;;;;5083499;28;20089;-55
2023/08/16 00:41:14;;;;;;;7.85;5.78;;;15.10;99.90;;;;;;5079981;28;20040;-55
2023/08/16 00:43:40;;;;;;;7.78;5.35;;;15.10;99.90;;;;;;5080564;28;20498;-56
2023/08/16 00:46:10;;;;;;;8.65;5.70;;;15.10;99.90;;;;;;5082847;28;20051;-57
2023/08/16 00:48:38;;;;;;;5.82;5.22;;;15.00;99.90;;;;;;5082308;28;20119;-54
2023/08/16 00:51:06;;;;;;;6.53;5.68;;;15.00;99.90;;;;;;5084773;28;20056;-54
2023/08/16 00:53:32;;;;;;;5.53;4.60;;;15.00;99.90;;;;;;5088299;28;20040;-53
2023/08/16 00:55:58;;;;;;;6.15;4.95;;;15.00;99.90;;;;;;5083270;28;20101;-54
2023/08/16 00:58:27;;;;;;;6.63;5.35;;;15.00;99.90;;;;;;5066228;28;20440;-54
2023/08/16 01:00:53;;;;;;;5.90;4.32;;;15.00;99.90;;;;;;5070399;28;20509;-53
2023/08/16 01:03:20;;;;;;;5.28;4.78;;;15.00;99.90;;;;;;5084559;28;20036;-55
2023/08/16 01:05:45;;;;;;;5.72;4.55;;;15.00;99.90;;;;;;5085839;28;20040;-57
2023/08/16 01:08:12;;;;;;;5.97;4.90;;;14.90;99.90;;;;;;5076488;28;20040;-55
2023/08/16 01:11:08;;;;;;;6.75;4.88;;;14.90;99.90;;;;;;5068632;28;20079;-55
2023/08/16 01:13:45;;;;;;;6.55;5.18;;;14.80;99.90;;;;;;5083284;28;20051;-56
2023/08/16 01:16:11;;;;;;;6.00;4.75;;;14.80;99.90;;;;;;5083218;28;20040;-54
2023/08/16 01:18:40;;;;;;;7.57;5.03;;;14.80;99.90;;;;;;5068755;28;20036;-54
2023/08/16 01:21:09;;;;;;;6.78;4.95;;;14.80;99.90;;;;;;5086098;28;20054;-55
2023/08/16 01:23:57;;;;;;;6.55;5.32;;;14.70;99.90;;;;;;5089808;28;20105;-55
2023/08/16 01:26:27;;;;;;;7.05;5.82;;;14.80;99.90;;;;;;5091501;28;20044;-56
2023/08/16 01:28:54;;;;;;;6.95;5.97;;;14.70;99.90;;;;;;5084397;28;20070;-55
2023/08/16 01:31:20;;;;;;;7.13;6.43;;;14.70;99.90;;;;;;5083070;28;20044;-55
2023/08/16 01:33:46;;;;;;;9.90;6.93;;;14.70;99.90;;;;;;5088606;28;20494;-54
2023/08/16 01:36:12;;;;;;;8.25;5.88;;;14.80;99.90;;;;;;5093348;28;20036;-54
2023/08/16 01:38:38;;;;;;;9.30;6.30;;;14.80;99.90;;;;;;5086198;28;20047;-54
2023/08/16 01:41:13;;;;;;;6.80;6.10;;;14.80;99.90;;;;;;5087738;28;20366;-51
2023/08/16 01:43:43;;;;;;;9.18;6.50;;;14.80;99.90;;;;;;5085773;28;20083;-51
2023/08/16 01:46:10;;;;;;;6.75;5.80;;;14.80;99.90;;;;;;5068069;28;20047;-54
2023/08/16 01:48:38;;;;;;;8.77;6.60;;;14.80;99.90;;;;;;5086849;28;20458;-52
2023/08/16 01:51:13;;;;;;;9.15;6.07;;;14.70;99.90;;;;;;5080724;28;20167;-55
2023/08/16 01:53:39;;;;;;;7.20;6.03;;;14.70;99.90;;;;;;5086632;28;20561;-56
2023/08/16 01:56:05;;;;;;;6.95;5.25;;;14.60;99.90;;;;;;5089947;28;20091;-56
2023/08/16 01:58:31;;;;;;;6.20;5.00;;;14.60;99.90;;;;;;5083653;28;20064;-54
2023/08/16 02:00:57;;;;;;;6.95;5.15;;;14.70;99.90;;;;;;5061436;28;20058;-55
2023/08/16 02:03:22;;;;;;;6.63;5.70;;;14.70;99.90;;;;;;5088654;28;20066;-58
2023/08/16 02:05:48;;;;;;;7.93;5.68;;;14.70;99.90;;;;;;5079826;28;20127;-54
2023/08/16 02:08:14;;;;;;;6.35;5.35;;;14.70;99.90;;;;;;5087197;28;20537;-55
2023/08/16 02:10:40;;;;;;;6.50;5.38;;;14.70;99.90;;;;;;5096827;28;20119;-53
2023/08/16 02:13:06;;;;;;;5.70;4.75;;;14.60;99.90;;;;;;5083215;28;20036;-56
2023/08/16 02:15:32;;;;;;;6.10;4.68;;;14.60;99.90;;;;;;5092272;28;20110;-56
2023/08/16 02:17:57;;;;;;;5.80;4.60;;;14.60;99.90;;;;;;5084563;28;20044;-54
2023/08/16 02:20:23;;;;;;;4.95;4.20;;;14.60;99.90;;;;;;5081404;28;20040;-56
2023/08/16 02:22:49;;;;;;;6.60;4.90;;;14.60;99.90;;;;;;5085697;28;20206;-56
2023/08/16 02:25:14;;;;;;;5.15;4.35;;;14.70;99.90;;;;;;5081245;28;20065;-56
2023/08/16 02:27:40;;;;;;;7.03;4.60;;;14.60;99.90;;;;;;5084251;28;20090;-54
2023/08/16 02:30:07;;;;;;;6.55;4.85;;;14.70;99.90;;;;;;5066135;28;20097;-53
2023/08/16 02:32:33;;;;;;;6.40;5.68;;;14.60;99.90;;;;;;5071739;28;20036;-56
2023/08/16 02:34:59;;;;;;;11.63;6.70;;;14.60;99.90;;;;;;5082616;28;20078;-54
2023/08/16 02:37:25;;;;;;;9.15;6.47;;;14.50;99.90;;;;;;5082297;28;20032;-55
2023/08/16 02:39:51;;;;;;;9.25;7.03;;;14.50;99.90;;;;;;5079204;28;20044;-56
2023/08/16 02:42:18;;;;;;;8.50;6.70;;;14.40;99.90;;;;;;5076939;28;20044;-55
2023/08/16 02:44:43;;;;;;;6.97;5.85;;;14.40;99.90;;;;;;5075666;28;20082;-55
2023/08/16 02:47:09;;;;;;;6.88;5.93;;;14.30;99.90;;;;;;5071995;28;20044;-54
2023/08/16 02:49:35;;;;;;;6.65;5.38;;;14.30;99.90;;;;;;5072285;28;20045;-55
2023/08/16 02:52:01;;;;;;;5.82;5.22;;;14.30;99.90;;;;;;5077815;28;20122;-56
2023/08/16 02:54:26;;;;;;;6.13;5.40;;;14.30;99.90;;;;;;5080387;28;20048;-57
2023/08/16 02:56:52;;;;;;;8.90;6.47;;;14.30;99.90;;;;;;5084498;28;20036;-56
2023/08/16 02:59:17;;;;;;;5.22;4.55;;;14.30;99.90;;;;;;5093071;28;20111;-55
2023/08/16 03:01:43;;;;;;;5.93;4.55;;;14.20;99.90;;;;;;5088594;28;20050;-55
2023/08/16 03:04:10;;;;;;;4.65;4.15;;;14.20;99.90;;;;;;5076443;28;20044;-56
2023/08/16 03:06:35;;;;;;;7.55;4.45;;;14.20;99.90;;;;;;5083928;28;20044;-56
2023/08/16 03:09:01;;;;;;;5.22;3.83;;;14.20;99.90;;;;;;5079950;28;20047;-55
2023/08/16 03:11:27;;;;;;;4.80;4.30;;;14.10;99.90;;;;;;5091644;28;20052;-58
2023/08/16 03:13:53;;;;;;;4.05;3.65;;;14.10;99.90;;;;;;5064951;28;20037;-56
2023/08/16 03:16:18;;;;;;;6.72;4.50;;;14.20;99.90;;;;;;5082056;28;20123;-55
2023/08/16 03:18:44;;;;;;;4.60;3.60;;;14.20;99.90;;;;;;5051309;28;20050;-55
2023/08/16 03:21:10;;;;;;;5.15;4.15;;;14.10;99.90;;;;;;5067425;28;20036;-55
2023/08/16 03:23:35;;;;;;;6.10;4.60;;;14.10;99.90;;;;;;5069290;28;20117;-56
2023/08/16 03:26:02;;;;;;;6.93;4.72;;;14.10;99.90;;;;;;5082176;28;20119;-57
2023/08/16 03:28:28;;;;;;;7.72;5.10;;;14.00;99.90;;;;;;5079707;28;20040;-56
2023/08/16 03:30:54;;;;;;;6.43;4.47;;;14.00;99.90;;;;;;5088050;28;20387;-57
2023/08/16 03:33:20;;;;;;;6.15;4.95;;;14.00;99.90;;;;;;5084634;28;20047;-56
2023/08/16 03:35:45;;;;;;;7.03;5.22;;;14.00;99.90;;;;;;5088704;28;20273;-56
2023/08/16 03:38:11;;;;;;;8.15;5.13;;;13.90;99.90;;;;;;5078396;28;20032;-56
2023/08/16 03:40:37;;;;;;;7.32;5.60;;;13.90;99.90;;;;;;5091169;28;20490;-55
2023/08/16 03:43:03;;;;;;;7.78;5.30;;;13.90;99.90;;;;;;5079920;28;20047;-57
2023/08/16 03:45:28;;;;;;;7.70;4.93;;;13.90;99.90;;;;;;5083186;28;20044;-56
2023/08/16 03:47:56;;;;;;;4.75;3.33;;;13.90;99.90;;;;;;5081226;28;20068;-56
2023/08/16 03:50:22;;;;;;;5.75;3.35;;;13.90;99.90;;;;;;5084122;28;20067;-54
2023/08/16 03:52:48;;;;;;;4.72;3.25;;;13.80;99.90;;;;;;5073998;28;20078;-57
2023/08/16 03:55:14;;;;;;;5.18;3.17;;;13.80;99.90;;;;;;5073624;28;20163;-55
2023/08/16 03:57:40;;;;;;;5.20;3.22;;;13.80;99.90;;;;;;5074345;28;20048;-55
2023/08/16 04:00:11;;;;;;;3.95;3.55;;;13.80;99.90;;;;;;5083329;28;20036;-58
2023/08/16 04:02:37;;;;;;;4.80;4.28;;;13.80;99.90;;;;;;5081669;28;20525;-56
2023/08/16 04:05:14;;;;;;;7.93;4.00;;;13.70;99.90;;;;;;5061733;28;20036;-56
2023/08/16 04:07:40;;;;;;;4.43;4.03;;;13.70;99.90;;;;;;5087247;28;20528;-57
2023/08/16 04:10:06;;;;;;;4.05;3.65;;;13.60;99.90;;;;;;5090911;28;20079;-58
2023/08/16 04:12:32;;;;;;;2.80;2.50;;;13.60;99.90;;;;;;5085575;28;20460;-56
2023/08/16 04:14:58;;;;;;;3.08;2.78;;;13.50;99.90;;;;;;5085587;28;20115;-58
2023/08/16 04:17:24;;;;;;;4.30;3.40;;;13.50;99.90;;;;;;5088977;28;20046;-55
2023/08/16 04:19:50;;;;;;;7.20;3.63;;;13.50;99.90;;;;;;5065499;28;20062;-58
2023/08/16 04:22:16;;;;;;;6.05;4.28;;;13.40;99.90;;;;;;5084616;28;20461;-56
2023/08/16 04:24:41;;;;;;;4.60;3.30;;;13.40;99.90;;;;;;5054932;28;20040;-55
2023/08/16 04:27:07;;;;;;;6.13;3.60;;;13.50;99.90;;;;;;5087860;28;20099;-56
2023/08/16 04:29:33;;;;;;;7.07;4.82;;;13.40;99.90;;;;;;5085251;28;20097;-55
2023/08/16 04:31:59;;;;;;;5.65;4.03;;;13.50;99.90;;;;;;5072852;28;20036;-58
2023/08/16 04:34:24;;;;;;;8.68;4.65;;;13.50;99.90;;;;;;5083202;28;20537;-57
2023/08/16 04:36:50;;;;;;;4.40;3.92;;;13.50;99.90;;;;;;5096568;28;20040;-54
2023/08/16 04:39:16;;;;;;;5.55;4.32;;;13.50;99.90;;;;;;5084867;28;20494;-53
2023/08/16 04:41:42;;;;;;;7.25;5.35;;;13.50;99.90;;;;;;5086759;28;20123;-57
2023/08/16 04:44:07;;;;;;;4.45;4.05;;;13.50;99.90;;;;;;5080252;28;20506;-58
2023/08/16 04:46:33;;;;;;;6.20;4.25;;;13.40;99.90;;;;;;5084470;28;20048;-56
2023/08/16 04:48:59;;;;;;;5.03;4.20;;;13.50;99.90;;;;;;5085246;28;20427;-55
2023/08/16 04:51:25;;;;;;;7.68;4.57;;;13.50;99.90;;;;;;5089789;28;20040;-58
2023/08/16 04:53:51;;;;;;;4.40;3.50;;;13.50;99.90;;;;;;5089118;28;20055;-56
2023/08/16 04:56:16;;;;;;;5.88;4.00;;;13.50;99.90;;;;;;5068153;28;20074;-58
2023/08/16 04:58:42;;;;;;;5.28;3.67;;;13.60;99.90;;;;;;5085477;28;20040;-58
2023/08/16 05:01:09;;;;;;;4.63;3.63;;;13.60;99.90;;;;;;5090078;28;20039;-55
2023/08/16 05:03:35;;;;;;;5.53;4.50;;;13.50;99.90;;;;;;5105070;22;20087;-50
2023/08/16 05:06:03;;;;;;;11.45;4.80;;;13.50;99.90;;;;;;5070195;28;21088;-50
2023/08/16 05:08:29;;;;;;;4.30;3.78;;;13.50;99.90;;;;;;5060971;28;20088;-52
2023/08/16 05:10:58;;;;;;;5.07;4.57;;;13.50;99.90;;;;;;5052091;28;20051;-52
2023/08/16 05:13:24;;;;;;;5.45;4.05;;;13.60;99.90;;;;;;5057304;28;20044;-54
2023/08/16 05:15:50;;;;;;;5.22;4.20;;;13.60;99.90;;;;;;5059959;28;20044;-53
2023/08/16 05:18:16;;;;;;;7.10;4.53;;;13.60;99.90;;;;;;5052932;28;20041;-53
2023/08/16 05:20:42;;;;;;;3.63;3.30;;;13.70;99.90;;;;;;5040223;28;20048;-54
2023/08/16 05:23:07;;;;;;;4.72;3.95;;;13.70;99.90;;;;;;5033726;28;20040;-52
2023/08/16 05:25:35;;;;;;;4.35;3.78;;;13.70;99.90;;;;;;5060196;28;20060;-54
2023/08/16 05:28:01;;;;;;;5.32;3.78;;;13.80;99.90;;;;;;5061313;28;20288;-55
2023/08/16 05:30:27;;;;;;;4.20;3.50;;;13.80;99.90;;;;;;5043148;28;20494;-53
2023/08/16 05:32:57;;;;;;;5.50;3.35;;;13.90;99.90;;;;;;5057322;28;20829;-52
2023/08/16 05:35:23;;;;;;;3.38;2.55;;;14.00;99.90;;;;;;5066817;28;20032;-51
2023/08/16 05:37:50;;;;;;;4.45;3.15;;;14.00;99.90;;;;;;5058006;28;20399;-54
2023/08/16 05:40:16;;;;;;;3.03;2.72;;;14.10;99.90;;;;;;5059148;28;20060;-52
2023/08/16 05:42:42;;;;;;;5.40;3.20;;;14.20;99.90;;;;;;5064654;28;20045;-52
2023/08/16 05:45:08;;;;;;;3.30;3.00;;;14.30;99.90;;;;;;5064048;28;20083;-54
2023/08/16 05:47:34;;;;;;;3.70;3.03;;;14.40;99.90;;;;;;5069467;28;20537;-50
2023/08/16 05:50:00;;;;;;;3.17;2.88;;;14.50;99.90;;;;;;5066254;28;20036;-53
2023/08/16 05:52:26;;;;;;;2.85;2.50;;;14.60;99.90;;;;;;5063670;28;20538;-53
2023/08/16 05:54:52;;;;;;;3.25;2.90;;;14.70;99.90;;;;;;5044603;28;20037;-54
2023/08/16 05:57:18;;;;;;;3.05;2.58;;;14.80;99.90;;;;;;5068547;28;20032;-52
2023/08/16 05:59:44;;;;;;;3.92;2.67;;;14.90;99.90;;;;;;5074366;28;20052;-52
2023/08/16 06:02:10;;;;;;;5.03;3.22;;;15.00;99.90;;;;;;5063842;28;20128;-53
2023/08/16 06:04:36;;;;;;;3.65;3.35;;;15.10;99.90;;;;;;5064708;28;20908;-54
2023/08/16 06:07:07;;;;;;;3.63;3.33;;;15.20;99.90;;;;;;5065820;28;20036;-53
2023/08/16 06:09:33;;;;;;;6.95;3.45;;;15.30;99.90;;;;;;5041523;28;20055;-54
2023/08/16 06:12:00;;;;;;;3.20;2.85;;;15.30;99.90;;;;;;5055121;28;20037;-54
2023/08/16 06:14:26;;;;;;;4.18;3.47;;;15.40;99.90;;;;;;5057386;28;20045;-53
2023/08/16 06:16:51;;;;;;;5.03;3.22;;;15.40;99.90;;;;;;5058508;28;20036;-53
2023/08/16 06:19:17;;;;;;;4.05;3.33;;;15.50;99.90;;;;;;5066169;28;20377;-51
2023/08/16 06:21:43;;;;;;;4.03;3.33;;;15.60;99.90;;;;;;5056374;28;20044;-53
2023/08/16 06:24:10;;;;;;;3.85;3.45;;;15.70;99.90;;;;;;5062759;28;20067;-55
2023/08/16 06:26:35;;;;;;;5.35;3.92;;;15.80;99.90;;;;;;5049093;28;20070;-53
2023/08/16 06:29:01;;;;;;;5.38;3.80;;;15.90;99.90;;;;;;5044684;28;20041;-52
2023/08/16 06:31:27;;;;;;;6.68;4.70;;;16.00;99.90;;;;;;5062000;28;20044;-51
2023/08/16 06:33:53;;;;;;;4.82;3.92;;;16.20;99.90;;;;;;5054504;28;20045;-52
2023/08/16 06:36:19;;;;;;;5.53;4.70;;;16.30;99.90;;;;;;5069106;28;20116;-53
2023/08/16 06:38:45;;;;;;;5.95;4.53;;;16.40;99.90;;;;;;5065126;28;20099;-54
2023/08/16 06:41:12;;;;;;;9.75;6.00;;;16.50;99.90;;;;;;5060308;28;20245;-55
2023/08/16 06:43:38;;;;;;;10.82;6.60;;;16.70;99.90;;;;;;5064993;28;20064;-53
2023/08/16 06:46:04;;;;;;;7.68;5.50;;;16.80;99.90;;;;;;5072038;28;20059;-51
2023/08/16 06:48:31;;;;;;;10.60;6.03;;;17.00;99.90;;;;;;5057138;28;20376;-52
2023/08/16 06:50:57;;;;;;;10.75;6.93;;;17.10;99.90;;;;;;5057481;28;20032;-55
2023/08/16 06:53:23;;;;;;;8.43;6.05;;;17.20;99.90;;;;;;5063391;28;20047;-54
2023/08/16 06:55:48;;;;;;;11.13;6.63;;;17.40;99.90;;;;;;5064963;28;20025;-54
2023/08/16 06:58:14;;;;;;;9.10;6.38;;;17.50;99.90;;;;;;5063005;28;20425;-54
2023/08/16 07:00:45;;;;;;;9.77;7.90;;;17.60;99.90;;;;;;5073895;28;20035;-54
2023/08/16 07:03:11;;;;;;;8.68;6.53;;;17.70;99.90;;;;;;5061963;28;20040;-54
2023/08/16 07:05:37;;;;;;;9.75;5.95;;;17.90;99.90;;;;;;5065919;28;20109;-51
2023/08/16 07:08:03;;;;;;;10.90;7.15;;;18.00;99.90;;;;;;5063301;28;20040;-51
2023/08/16 07:10:29;;;;;;;8.70;6.28;;;18.10;99.90;;;;;;5066196;28;20044;-51
2023/08/16 07:12:55;;;;;;;8.38;6.28;;;18.20;99.90;;;;;;5061954;28;20110;-54
2023/08/16 07:15:21;;;;;;;7.78;5.38;;;18.30;99.90;;;;;;5055293;28;20099;-53
2023/08/16 07:17:46;;;;;;;11.13;6.10;;;18.40;99.90;;;;;;5058555;28;20037;-53
2023/08/16 07:20:12;;;;;;;7.10;4.57;;;18.50;99.90;;;;;;5065538;28;20132;-52
2023/08/16 07:22:38;;;;;;;8.48;5.55;;;18.60;99.90;;;;;;5049853;28;20686;-51
2023/08/16 07:25:06;;;;;;;8.43;4.90;;;18.70;99.90;;;;;;5062179;28;20571;-54
2023/08/16 07:27:32;;;;;;;8.40;5.30;;;18.90;99.90;;;;;;5063324;28;20107;-52
2023/08/16 07:29:58;;;;;;;5.88;5.15;;;18.90;99.90;;;;;;5068285;28;22193;-54
2023/08/16 07:32:24;;;;;;;8.73;4.97;;;19.00;99.90;;;;;;5061052;28;20033;-53
2023/08/16 07:34:50;;;;;;;9.95;5.22;;;19.10;99.90;;;;;;5071170;28;20471;-53
2023/08/16 07:37:17;;;;;;;8.63;3.88;;;19.30;99.90;;;;;;5067524;28;20036;-55
2023/08/16 07:39:43;;;;;;;5.78;3.90;;;19.40;99.90;;;;;;5067930;28;20275;-55
2023/08/16 07:42:09;;;;;;;5.80;3.97;;;19.50;99.90;;;;;;5063182;28;20070;-54
2023/08/16 07:44:36;;;;;;;7.57;4.15;;;19.60;99.90;;;;;;5064308;28;20033;-52
2023/08/16 07:47:02;;;;;;;5.70;3.90;;;19.70;99.90;;;;;;5063968;28;20514;-54
2023/08/16 07:49:29;;;;;;;6.72;3.70;;;19.70;99.90;;;;;;5067078;28;20050;-54
2023/08/16 07:51:58;;;;;;;6.05;4.15;;;19.70;99.90;;;;;;5072194;28;20044;-52
2023/08/16 07:54:24;;;;;;;7.45;4.15;;;19.80;99.90;;;;;;5063899;28;20041;-54
2023/08/16 07:57:24;;;;;;;8.80;5.32;;;19.80;99.90;;;;;;5069563;28;20373;-55
2023/08/16 07:59:50;;;;;;;8.05;5.20;;;19.90;99.90;;;;;;5066098;28;20035;-54
2023/08/16 08:02:16;;;;;;;7.25;5.22;;;19.90;99.90;;;;;;5058235;28;20036;-55
2023/08/16 08:04:41;;;;;;;7.82;6.47;;;19.90;99.90;;;;;;5065578;28;20040;-54
2023/08/16 08:07:07;;;;;;;9.02;5.88;;;20.10;99.90;;;;;;5073798;28;20032;-55
2023/08/16 08:09:33;;;;;;;9.60;5.55;;;20.10;99.90;;;;;;5069209;28;20122;-52
2023/08/16 08:11:59;;;;;;;6.22;4.78;;;20.20;99.90;;;;;;5069150;28;20071;-52
2023/08/16 08:14:25;;;;;;;6.75;4.78;;;20.30;99.90;;;;;;5063247;28;20024;-54
2023/08/16 08:16:52;;;;;;;7.80;5.10;;;20.30;99.90;;;;;;5050196;28;20664;-55
2023/08/16 08:19:17;;;;;;;10.02;6.38;;;20.30;99.90;;;;;;5014949;28;20070;-55
2023/08/16 08:21:44;;;;;;;11.50;6.53;;;20.30;99.90;;;;;;5041987;28;20049;-51
2023/08/16 08:24:10;;;;;;;7.18;4.40;;;20.30;99.90;;;;;;5054861;28;20051;-55
2023/08/16 08:26:36;;;;;;;7.75;3.85;;;20.40;99.90;;;;;;5061041;28;20495;-55
2023/08/16 08:29:02;;;;;;;6.68;4.07;;;20.50;99.90;;;;;;5064907;28;20040;-54
2023/08/16 08:31:28;;;;;;;7.05;3.60;;;20.60;99.90;;;;;;5068331;28;20044;-54
2023/08/16 08:33:54;;;;;;;6.47;3.30;;;20.70;99.90;;;;;;5067610;28;20045;-55
2023/08/16 08:36:20;;;;;;;5.85;2.72;;;20.90;99.90;;;;;;5064165;28;20466;-55
2023/08/16 08:38:46;;;;;;;7.40;2.92;;;21.00;99.90;;;;;;5052547;28;20043;-54
2023/08/16 08:41:12;;;;;;;10.52;3.67;;;21.10;99.90;;;;;;5063267;28;20098;-55
2023/08/16 08:43:38;;;;;;;7.60;2.95;;;21.10;99.90;;;;;;5069085;28;20559;-55
2023/08/16 08:46:05;;;;;;;5.78;2.80;;;21.10;99.90;;;;;;5062275;28;20439;-54
2023/08/16 08:48:31;;;;;;;5.90;2.72;;;21.30;99.90;;;;;;5068829;28;20064;-54
2023/08/16 08:50:58;;;;;;;6.05;2.60;;;21.40;99.90;;;;;;5030871;28;20044;-54
2023/08/16 08:53:25;;;;;;;4.32;2.28;;;21.50;99.90;;;;;;5069419;28;20042;-54
2023/08/16 08:55:56;;;;;;;6.65;2.58;;;21.50;99.90;;;;;;5052814;28;20491;-53
2023/08/16 08:58:22;;;;;;;4.07;2.30;;;21.60;99.90;;;;;;5058563;28;20037;-53
2023/08/16 09:00:49;;;;;;;5.95;2.88;;;21.60;99.90;;;;;;5069106;28;20028;-54
2023/08/16 09:03:21;;;;;;;8.55;3.13;;;21.60;99.90;;;;;;5066149;28;20044;-54
2023/08/16 09:05:52;;;;;;;4.43;2.80;;;21.70;99.90;;;;;;5060095;28;20495;-53
2023/08/16 09:08:22;;;;;;;7.93;2.88;;;21.80;99.90;;;;;;5049337;28;20047;-52
2023/08/16 09:10:50;;;;;;;4.70;2.58;;;21.90;99.90;;;;;;5065193;28;20463;-54
2023/08/16 09:13:18;;;;;;;5.18;2.50;;;21.90;99.90;;;;;;5064122;28;20072;-54
2023/08/16 09:15:43;;;;;;;3.08;2.10;;;21.90;99.90;;;;;;5063257;28;20082;-55
2023/08/16 09:18:14;;;;;;;5.47;2.78;;;22.00;99.90;;;;;;5049591;28;20036;-51
2023/08/16 09:20:42;;;;;;;5.85;2.90;;;22.10;99.90;;;;;;5064329;28;20048;-54
2023/08/16 09:23:12;;;;;;;4.43;2.40;;;22.20;99.90;;;;;;5061679;28;20592;-53
2023/08/16 09:25:38;;;;;;;4.45;2.45;;;22.30;99.90;;;;;;5058805;28;20126;-52
2023/08/16 09:28:07;;;;;;;5.03;2.00;;;22.30;99.90;;;;;;5060028;28;20163;-52
2023/08/16 09:30:33;;;;;;;5.28;2.05;;;22.20;99.90;;;;;;5067250;28;20051;-55
2023/08/16 09:33:00;;;;;;;3.85;1.80;;;22.30;99.90;;;;;;5066956;28;20219;-54
2023/08/16 09:35:30;;;;;;;5.72;2.22;;;22.50;99.90;;;;;;5063493;28;20032;-53
2023/08/16 09:38:00;;;;;;;6.00;2.38;;;22.60;99.90;;;;;;5066009;28;20062;-53
2023/08/16 09:40:26;;;;;;;5.28;1.90;;;22.50;99.90;;;;;;5065271;28;21367;-53
2023/08/16 09:42:57;;;;;;;4.72;1.90;;;22.60;99.90;;;;;;5061251;28;20563;-55
2023/08/16 09:45:42;;;;;;;7.57;2.88;;;22.70;99.90;;;;;;5068957;28;20426;-54
2023/08/16 09:48:08;;;;;;;4.38;1.85;;;22.80;99.90;;;;;;5063611;28;20124;-55
2023/08/16 09:50:59;;;;;;;3.00;1.80;;;22.80;99.90;;;;;;5065762;28;20040;-51
2023/08/16 09:53:27;;;;;;;3.97;1.80;;;22.90;99.90;;;;;;5063428;28;20040;-52
2023/08/16 09:55:55;;;;;;;4.28;1.65;;;23.00;99.90;;;;;;5067360;28;20194;-55
2023/08/16 09:58:21;;;;;;;3.22;1.58;;;23.10;99.90;;;;;;5064940;28;20033;-55
2023/08/16 10:00:48;;;;;;;4.75;1.60;;;23.10;99.90;;;;;;5031883;28;20053;-55
2023/08/16 10:03:15;;;;;;;3.90;1.50;;;23.00;99.90;;;;;;5060678;28;20044;-54
2023/08/16 10:05:41;;;;;;;3.15;1.38;;;23.10;99.90;;;;;;5047582;28;20187;-55
2023/08/16 10:08:09;;;;;;;3.22;1.30;;;23.30;99.90;;;;;;5064898;28;20044;-55
2023/08/16 10:10:35;;;;;;;2.88;1.70;;;23.30;99.90;;;;;;5071676;28;20479;-55
2023/08/16 10:16:27;;;;;;;3.30;1.50;;;23.30;99.90;;;;;;5065152;28;20037;-56
2023/08/16 10:18:55;;;;;;;2.92;1.58;;;23.40;99.90;;;;;;5060936;28;20048;-53
2023/08/16 10:21:22;;;;;;;4.25;1.50;;;23.50;99.90;;;;;;5046432;28;20068;-53
2023/08/16 10:23:48;;;;;;;4.03;1.50;;;23.60;99.90;;;;;;5043242;28;20114;-56
2023/08/16 10:26:19;;;;;;;4.43;1.55;;;23.70;99.90;;;;;;5059629;28;20077;-47
2023/08/16 10:28:50;;;;;;;4.35;1.95;;;23.80;99.90;;;;;;5055761;28;20100;-52
2023/08/16 10:31:20;;;;;;;3.90;1.20;;;23.90;99.90;;;;;;5065815;28;20108;-55
2023/08/16 10:33:48;;;;;;;6.38;1.75;;;23.80;99.90;;;;;;5064232;28;20040;-53
2023/08/16 10:36:16;;;;;;;3.63;1.33;;;23.90;99.90;;;;;;5055780;28;20036;-56
2023/08/16 10:38:42;;;;;;;4.53;1.55;;;24.00;99.90;;;;;;5034755;28;20063;-52
2023/08/16 10:41:12;;;;;;;2.00;1.15;;;24.20;99.90;;;;;;5058927;28;20036;-53
2023/08/16 10:43:43;;;;;;;3.20;1.70;;;24.40;99.90;;;;;;5063102;28;20083;-54
2023/08/16 10:46:09;;;;;;;2.95;1.20;;;24.60;99.90;;;;;;5044054;28;20490;-53
2023/08/16 10:48:36;;;;;;;3.45;1.20;;;24.40;99.30;;;;;;5063863;28;20040;-53
2023/08/16 10:51:07;;;;;;;2.00;0.90;;;24.30;98.80;;;;;;5060788;28;20507;-56
2023/08/16 10:53:34;;;;;;;2.17;1.08;;;24.30;99.20;;;;;;5068360;28;20110;-56
2023/08/16 10:56:08;;;;;;;4.60;1.23;;;24.50;99.00;;;;;;5068696;28;20036;-56
2023/08/16 10:58:45;;;;;;;1.90;1.02;;;24.60;98.90;;;;;;5063376;28;20556;-54
2023/08/16 11:01:11;;;;;;;2.28;1.10;;;24.70;98.60;;;;;;5063275;28;20052;-56
2023/08/16 11:03:39;;;;;;;2.55;0.95;;;24.60;98.40;;;;;;5052255;28;20036;-56
2023/08/16 11:06:09;;;;;;;2.10;1.10;;;24.60;98.10;;;;;;5060536;28;20059;-54
2023/08/16 11:08:38;;;;;;;1.63;1.10;;;24.80;98.00;;;;;;5064546;28;20094;-53
2023/08/16 11:11:04;;;;;;;1.80;1.20;;;24.80;97.30;;;;;;5066247;28;20384;-51
2023/08/16 11:13:30;;;;;;;3.92;1.45;;;24.80;97.30;;;;;;5065038;28;20051;-54
2023/08/16 11:15:59;;;;;;;2.60;1.23;;;25.00;97.90;;;;;;5040482;28;20076;-56
2023/08/16 11:18:34;;;;;;;2.58;0.90;;;25.00;97.40;;;;;;5063805;28;20059;-56
2023/08/16 11:21:00;;;;;;;1.25;0.90;;;25.20;97.20;;;;;;5062799;28;20434;-56
2023/08/16 11:23:39;;;;;;;2.42;0.82;;;25.30;97.50;;;;;;5047923;28;20036;-54
2023/08/16 11:26:07;;;;;;;2.90;1.02;;;25.50;97.80;;;;;;5041094;28;20041;-56
2023/08/16 11:28:34;;;;;;;2.38;1.08;;;25.50;97.00;;;;;;5058969;28;20052;-55
2023/08/16 11:31:02;;;;;;;3.10;1.17;;;25.30;96.80;;;;;;5051463;28;20127;-55
2023/08/16 11:33:39;;;;;;;3.92;1.10;;;25.50;97.00;;;;;;5055436;28;20049;-52
2023/08/16 11:36:08;;;;;;;3.40;1.30;;;25.60;97.00;;;;;;5057915;28;20032;-53
2023/08/16 11:38:34;;;;;;;3.13;1.25;;;25.70;96.40;;;;;;5054421;28;20044;-57
2023/08/16 11:41:04;;;;;;;2.30;1.10;;;25.70;96.30;;;;;;5065325;28;20036;-53
2023/08/16 11:43:32;;;;;;;2.67;0.95;;;25.60;96.10;;;;;;5072371;28;20410;-55
2023/08/16 11:45:59;;;;;;;3.58;0.90;;;25.70;96.10;;;;;;5069797;28;20059;-52
2023/08/16 11:48:25;;;;;;;2.75;0.85;;;25.70;96.10;;;;;;5056069;28;20468;-53
2023/08/16 11:50:51;;;;;;;2.03;0.70;;;25.70;96.10;;;;;;5067742;28;20051;-54
2023/08/16 11:53:18;;;;;;;4.05;0.93;;;25.70;95.90;;;;;;5050317;28;20063;-51
2023/08/16 11:56:08;;;;;;;1.50;0.90;;;25.60;96.10;;;;;;5046962;28;20033;-52
2023/08/16 11:58:48;;;;;;;2.92;1.23;;;25.60;95.70;;;;;;5061335;28;20052;-55
2023/08/16 12:01:15;;;;;;;3.72;1.20;;;25.60;95.50;;;;;;5057217;28;20609;-53
2023/08/16 12:03:43;;;;;;;3.67;1.30;;;25.60;96.00;;;;;;5054080;28;20490;-53
2023/08/16 12:06:09;;;;;;;3.35;1.00;;;25.60;95.70;;;;;;5065430;28;20123;-52
2023/08/16 12:08:35;;;;;;;3.80;1.27;;;25.80;96.40;;;;;;5058181;28;20128;-53
2023/08/16 12:11:03;;;;;;;2.53;0.90;;;26.00;95.40;;;;;;5047308;28;20043;-54
2023/08/16 12:13:29;;;;;;;5.30;1.20;;;26.10;96.20;;;;;;5064165;28;20128;-54
2023/08/16 12:15:55;;;;;;;2.05;0.75;;;26.30;96.00;;;;;;5047251;28;20114;-56
2023/08/16 12:18:22;;;;;;;1.38;0.80;;;26.30;95.90;;;;;;5067777;28;20507;-54
2023/08/16 12:20:52;;;;;;;2.28;0.90;;;26.50;95.80;;;;;;5066918;28;20556;-54
2023/08/16 12:23:21;;;;;;;2.13;0.90;;;26.40;95.40;;;;;;5061003;28;20282;-54
2023/08/16 12:25:47;;;;;;;2.05;0.90;;;26.40;95.50;;;;;;5063564;28;20499;-56
2023/08/16 12:28:12;;;;;;;2.15;0.70;;;26.40;95.80;;;;;;5049797;28;20074;-56
2023/08/16 12:30:38;;;;;;;3.28;1.00;;;26.50;95.40;;;;;;5070096;28;20058;-55
2023/08/16 12:33:04;;;;;;;9.55;1.38;;;26.60;95.50;;;;;;5066170;28;20148;-54
2023/08/16 12:35:31;;;;;;;6.00;1.08;;;26.60;95.20;;;;;;5065126;28;20040;-53
2023/08/16 12:37:56;;;;;;;2.17;0.70;;;26.60;94.90;;;;;;5048480;28;20463;-53
2023/08/16 12:40:28;;;;;;;2.60;1.00;;;26.40;95.30;;;;;;5059114;28;20091;-56
2023/08/16 12:42:54;;;;;;;3.20;0.95;;;26.40;95.10;;;;;;5073850;28;20048;-53
2023/08/16 12:45:20;;;;;;;2.90;0.95;;;26.30;95.00;;;;;;5044848;28;20044;-54
2023/08/16 12:47:46;;;;;;;2.78;0.70;;;26.40;95.30;;;;;;5066375;28;20089;-54
2023/08/16 12:50:13;;;;;;;2.85;1.02;;;26.40;94.50;;;;;;5059230;28;20053;-54